SKUC/AUC METAR and TAF weather

Enter ICAO airport designator
Station Type Date Time Source
SKUC METAR 2020/04/04 20:00 UTC NOAA

SKUC 042000Z 04003KT 9999 BKN020 35/23 A2972


Station Type Date Time Source
SKUC Decoded METAR 2020/04/04 20:00 UTC NOAA

Arauca / Santiago Perez, Colombia (SKUC) 07-04N 070-44W 128M
Apr 04, 2020 - 04:00 PM EDT / 2020.04.04 2000 UTC
Wind: from the NE (040 degrees) at 3 MPH (3 KT):0
Visibility: greater than 7 mile(s):0
Sky conditions: mostly cloudy
Temperature: 95 F (35 C)
Heat index: 104.5 F (40.3 C):1
Dew Point: 73 F (23 C)
Relative Humidity: 49%
Pressure (altimeter): 29.72 in. Hg (1006 hPa)
ob: SKUC 042000Z 04003KT 9999 BKN020 35/23 A2972
cycle: 20

Station Type Date Time Source
SKUC TAF UTC NOAA

Error!

Example: see airport list